sensor_id;sensor_type;location;lat;lon;timestamp;temperature;humidity
5978;DHT22;3015;51.390;12.256;2022-12-29T00:02:30;8.90;1.00
5978;DHT22;3015;51.390;12.256;2022-12-29T00:04:57;9.00;1.00
5978;DHT22;3015;51.390;12.256;2022-12-29T00:07:23;9.00;1.00
5978;DHT22;3015;51.390;12.256;2022-12-29T00:09:51;9.00;1.00
5978;DHT22;3015;51.390;12.256;2022-12-29T00:12:16;9.10;1.00
5978;DHT22;3015;51.390;12.256;2022-12-29T00:14:42;9.00;1.00
5978;DHT22;3015;51.390;12.256;2022-12-29T00:17:26;9.00;1.00
5978;DHT22;3015;51.390;12.256;2022-12-29T00:19:52;9.10;1.00
5978;DHT22;3015;51.390;12.256;2022-12-29T00:22:37;9.10;1.00
5978;DHT22;3015;51.390;12.256;2022-12-29T00:25:22;9.10;1.00
5978;DHT22;3015;51.390;12.256;2022-12-29T00:28:08;9.10;1.00
5978;DHT22;3015;51.390;12.256;2022-12-29T00:30:53;9.20;1.00
5978;DHT22;3015;51.390;12.256;2022-12-29T00:33:37;9.10;1.00
5978;DHT22;3015;51.390;12.256;2022-12-29T00:36:31;9.10;1.00
5978;DHT22;3015;51.390;12.256;2022-12-29T00:39:03;9.10;1.00
5978;DHT22;3015;51.390;12.256;2022-12-29T00:41:50;9.10;1.00
5978;DHT22;3015;51.390;12.256;2022-12-29T00:44:36;9.30;1.00
5978;DHT22;3015;51.390;12.256;2022-12-29T00:47:01;9.30;99.90
5978;DHT22;3015;51.390;12.256;2022-12-29T00:49:51;9.30;1.00
5978;DHT22;3015;51.390;12.256;2022-12-29T00:52:22;9.20;1.00
5978;DHT22;3015;51.390;12.256;2022-12-29T00:54:48;9.30;1.00
5978;DHT22;3015;51.390;12.256;2022-12-29T00:57:14;9.40;99.90
5978;DHT22;3015;51.390;12.256;2022-12-29T00:59:40;9.40;1.00
5978;DHT22;3015;51.390;12.256;2022-12-29T01:02:07;9.40;1.00
5978;DHT22;3015;51.390;12.256;2022-12-29T01:04:33;9.40;99.90
5978;DHT22;3015;51.390;12.256;2022-12-29T01:06:58;9.50;99.90
5978;DHT22;3015;51.390;12.256;2022-12-29T01:09:24;9.50;99.90
5978;DHT22;3015;51.390;12.256;2022-12-29T01:12:09;9.50;99.90
5978;DHT22;3015;51.390;12.256;2022-12-29T01:14:35;9.50;99.90
5978;DHT22;3015;51.390;12.256;2022-12-29T01:17:01;9.60;99.90
5978;DHT22;3015;51.390;12.256;2022-12-29T01:19:26;9.50;1.00
5978;DHT22;3015;51.390;12.256;2022-12-29T01:21:52;9.60;1.00
5978;DHT22;3015;51.390;12.256;2022-12-29T01:24:19;9.50;1.00
5978;DHT22;3015;51.390;12.256;2022-12-29T01:26:45;9.40;1.00
5978;DHT22;3015;51.390;12.256;2022-12-29T01:29:11;9.50;1.00
5978;DHT22;3015;51.390;12.256;2022-12-29T01:31:37;9.60;1.00
5978;DHT22;3015;51.390;12.256;2022-12-29T01:34:04;9.60;1.00
5978;DHT22;3015;51.390;12.256;2022-12-29T01:36:29;9.60;1.00
5978;DHT22;3015;51.390;12.256;2022-12-29T01:38:55;9.50;1.00
5978;DHT22;3015;51.390;12.256;2022-12-29T01:41:21;9.60;1.00
5978;DHT22;3015;51.390;12.256;2022-12-29T01:43:48;9.50;1.00
5978;DHT22;3015;51.390;12.256;2022-12-29T01:51:54;9.50;1.00
5978;DHT22;3015;51.390;12.256;2022-12-29T01:54:42;9.50;1.00
5978;DHT22;3015;51.390;12.256;2022-12-29T01:57:12;9.60;1.00
5978;DHT22;3015;51.390;12.256;2022-12-29T01:59:43;9.60;1.00
5978;DHT22;3015;51.390;12.256;2022-12-29T02:02:11;9.60;1.00
5978;DHT22;3015;51.390;12.256;2022-12-29T02:04:40;9.60;1.00
5978;DHT22;3015;51.390;12.256;2022-12-29T02:07:14;9.70;1.00
5978;DHT22;3015;51.390;12.256;2022-12-29T02:09:42;9.70;1.00
5978;DHT22;3015;51.390;12.256;2022-12-29T02:12:09;9.70;1.00
5978;DHT22;3015;51.390;12.256;2022-12-29T02:14:35;9.70;1.00
5978;DHT22;3015;51.390;12.256;2022-12-29T02:22:34;9.80;1.00
5978;DHT22;3015;51.390;12.256;2022-12-29T02:34:37;10.00;1.00
5978;DHT22;3015;51.390;12.256;2022-12-29T02:39:50;10.00;1.00
5978;DHT22;3015;51.390;12.256;2022-12-29T02:48:20;10.10;1.00
5978;DHT22;3015;51.390;12.256;2022-12-29T02:53:32;10.10;1.00
5978;DHT22;3015;51.390;12.256;2022-12-29T02:56:17;10.20;1.00
5978;DHT22;3015;51.390;12.256;2022-12-29T02:58:42;10.20;1.00
5978;DHT22;3015;51.390;12.256;2022-12-29T03:01:37;10.10;1.00
5978;DHT22;3015;51.390;12.256;2022-12-29T03:04:21;10.10;1.00
5978;DHT22;3015;51.390;12.256;2022-12-29T03:07:15;10.00;1.00
5978;DHT22;3015;51.390;12.256;2022-12-29T03:10:14;10.00;1.00
5978;DHT22;3015;51.390;12.256;2022-12-29T03:12:54;10.20;1.00
5978;DHT22;3015;51.390;12.256;2022-12-29T03:15:47;10.20;1.00
5978;DHT22;3015;51.390;12.256;2022-12-29T03:18:33;10.20;1.00
5978;DHT22;3015;51.390;12.256;2022-12-29T03:21:08;10.20;1.00
5978;DHT22;3015;51.390;12.256;2022-12-29T03:23:36;10.20;1.00
5978;DHT22;3015;51.390;12.256;2022-12-29T03:26:06;10.20;1.00
5978;DHT22;3015;51.390;12.256;2022-12-29T03:28:43;10.20;1.00
5978;DHT22;3015;51.390;12.256;2022-12-29T03:31:12;10.30;1.00
5978;DHT22;3015;51.390;12.256;2022-12-29T03:33:39;10.20;1.00
5978;DHT22;3015;51.390;12.256;2022-12-29T03:36:12;10.20;1.00
5978;DHT22;3015;51.390;12.256;2022-12-29T03:39:19;10.30;1.00
5978;DHT22;3015;51.390;12.256;2022-12-29T03:41:41;10.30;1.00
5978;DHT22;3015;51.390;12.256;2022-12-29T03:44:08;10.30;1.00
5978;DHT22;3015;51.390;12.256;2022-12-29T03:46:33;10.30;1.00
5978;DHT22;3015;51.390;12.256;2022-12-29T03:48:59;10.30;1.00
5978;DHT22;3015;51.390;12.256;2022-12-29T03:51:25;10.30;1.00
5978;DHT22;3015;51.390;12.256;2022-12-29T03:53:50;10.30;1.00
5978;DHT22;3015;51.390;12.256;2022-12-29T03:56:16;10.30;1.00
5978;DHT22;3015;51.390;12.256;2022-12-29T03:58:41;10.30;1.00
5978;DHT22;3015;51.390;12.256;2022-12-29T04:01:07;10.40;1.00
5978;DHT22;3015;51.390;12.256;2022-12-29T04:03:33;10.40;1.00
5978;DHT22;3015;51.390;12.256;2022-12-29T04:05:58;10.40;1.00
5978;DHT22;3015;51.390;12.256;2022-12-29T04:08:24;10.50;1.00
5978;DHT22;3015;51.390;12.256;2022-12-29T04:10:49;10.50;1.00
5978;DHT22;3015;51.390;12.256;2022-12-29T04:13:15;10.50;1.00
5978;DHT22;3015;51.390;12.256;2022-12-29T04:15:43;10.30;1.00
5978;DHT22;3015;51.390;12.256;2022-12-29T04:18:08;10.40;1.00
5978;DHT22;3015;51.390;12.256;2022-12-29T04:20:34;10.40;1.00
5978;DHT22;3015;51.390;12.256;2022-12-29T04:23:18;10.40;1.00
5978;DHT22;3015;51.390;12.256;2022-12-29T04:25:47;10.40;1.00
5978;DHT22;3015;51.390;12.256;2022-12-29T04:28:13;10.30;1.00
5978;DHT22;3015;51.390;12.256;2022-12-29T04:30:39;10.40;1.00
5978;DHT22;3015;51.390;12.256;2022-12-29T04:33:05;10.30;1.00
5978;DHT22;3015;51.390;12.256;2022-12-29T04:35:30;10.30;1.00
5978;DHT22;3015;51.390;12.256;2022-12-29T04:37:56;10.30;1.00
5978;DHT22;3015;51.390;12.256;2022-12-29T04:40:22;10.40;1.00
5978;DHT22;3015;51.390;12.256;2022-12-29T04:42:49;10.40;1.00
5978;DHT22;3015;51.390;12.256;2022-12-29T04:45:14;10.40;1.00
5978;DHT22;3015;51.390;12.256;2022-12-29T04:47:40;10.40;1.00
5978;DHT22;3015;51.390;12.256;2022-12-29T04:50:06;10.50;1.00
5978;DHT22;3015;51.390;12.256;2022-12-29T04:52:32;10.50;1.00
5978;DHT22;3015;51.390;12.256;2022-12-29T04:54:57;10.50;1.00
5978;DHT22;3015;51.390;12.256;2022-12-29T04:57:23;10.60;1.00
5978;DHT22;3015;51.390;12.256;2022-12-29T04:59:49;10.50;1.00
5978;DHT22;3015;51.390;12.256;2022-12-29T05:02:15;10.40;1.00
5978;DHT22;3015;51.390;12.256;2022-12-29T05:04:41;10.40;1.00
5978;DHT22;3015;51.390;12.256;2022-12-29T05:07:07;10.40;1.00
5978;DHT22;3015;51.390;12.256;2022-12-29T05:09:32;10.30;1.00
5978;DHT22;3015;51.390;12.256;2022-12-29T05:11:58;10.30;1.00
5978;DHT22;3015;51.390;12.256;2022-12-29T05:14:24;10.20;1.00
5978;DHT22;3015;51.390;12.256;2022-12-29T05:16:49;10.30;1.00
5978;DHT22;3015;51.390;12.256;2022-12-29T05:19:15;10.20;1.00
5978;DHT22;3015;51.390;12.256;2022-12-29T05:21:42;10.20;1.00
5978;DHT22;3015;51.390;12.256;2022-12-29T05:24:08;10.20;1.00
5978;DHT22;3015;51.390;12.256;2022-12-29T05:26:34;10.20;11.30
5978;DHT22;3015;51.390;12.256;2022-12-29T05:29:00;10.00;99.90
5978;DHT22;3015;51.390;12.256;2022-12-29T05:31:26;9.90;99.90
5978;DHT22;3015;51.390;12.256;2022-12-29T05:33:52;9.80;99.90
5978;DHT22;3015;51.390;12.256;2022-12-29T05:36:18;9.80;99.90
5978;DHT22;3015;51.390;12.256;2022-12-29T05:38:44;9.90;99.90
5978;DHT22;3015;51.390;12.256;2022-12-29T05:41:09;9.80;99.90
5978;DHT22;3015;51.390;12.256;2022-12-29T05:43:35;9.80;99.90
5978;DHT22;3015;51.390;12.256;2022-12-29T05:46:01;9.70;99.90
5978;DHT22;3015;51.390;12.256;2022-12-29T05:48:28;9.80;99.90
5978;DHT22;3015;51.390;12.256;2022-12-29T05:50:53;9.70;99.90
5978;DHT22;3015;51.390;12.256;2022-12-29T05:53:19;9.80;99.90
5978;DHT22;3015;51.390;12.256;2022-12-29T05:55:46;9.80;99.90
5978;DHT22;3015;51.390;12.256;2022-12-29T05:58:12;9.70;99.90
5978;DHT22;3015;51.390;12.256;2022-12-29T06:00:37;9.70;99.90
5978;DHT22;3015;51.390;12.256;2022-12-29T06:03:03;9.70;99.90
5978;DHT22;3015;51.390;12.256;2022-12-29T06:05:29;9.70;1.00
5978;DHT22;3015;51.390;12.256;2022-12-29T06:07:55;9.70;99.90
5978;DHT22;3015;51.390;12.256;2022-12-29T06:10:20;9.70;99.90
5978;DHT22;3015;51.390;12.256;2022-12-29T06:12:46;9.80;99.90
5978;DHT22;3015;51.390;12.256;2022-12-29T06:15:12;9.90;99.90
5978;DHT22;3015;51.390;12.256;2022-12-29T06:17:38;10.00;99.90
5978;DHT22;3015;51.390;12.256;2022-12-29T06:20:05;10.00;99.90
5978;DHT22;3015;51.390;12.256;2022-12-29T06:22:30;10.10;99.90
5978;DHT22;3015;51.390;12.256;2022-12-29T06:24:56;10.20;99.90
5978;DHT22;3015;51.390;12.256;2022-12-29T06:27:22;10.20;99.90
5978;DHT22;3015;51.390;12.256;2022-12-29T06:29:47;10.30;99.90
5978;DHT22;3015;51.390;12.256;2022-12-29T06:32:13;10.30;99.90
5978;DHT22;3015;51.390;12.256;2022-12-29T06:34:39;10.40;99.90
5978;DHT22;3015;51.390;12.256;2022-12-29T06:37:04;10.40;99.90
5978;DHT22;3015;51.390;12.256;2022-12-29T06:39:30;10.40;99.90
5978;DHT22;3015;51.390;12.256;2022-12-29T06:41:55;10.50;99.90
5978;DHT22;3015;51.390;12.256;2022-12-29T06:44:21;10.50;99.90
5978;DHT22;3015;51.390;12.256;2022-12-29T06:46:47;10.60;92.10
5978;DHT22;3015;51.390;12.256;2022-12-29T06:49:13;10.50;94.70
5978;DHT22;3015;51.390;12.256;2022-12-29T06:51:38;10.50;94.90
5978;DHT22;3015;51.390;12.256;2022-12-29T06:54:04;10.60;50.70
5978;DHT22;3015;51.390;12.256;2022-12-29T06:56:29;10.60;66.50
5978;DHT22;3015;51.390;12.256;2022-12-29T06:58:55;10.60;23.10
5978;DHT22;3015;51.390;12.256;2022-12-29T07:01:22;10.60;37.70
5978;DHT22;3015;51.390;12.256;2022-12-29T07:03:48;10.70;1.80
5978;DHT22;3015;51.390;12.256;2022-12-29T07:06:14;10.60;17.90
5978;DHT22;3015;51.390;12.256;2022-12-29T07:08:39;10.50;90.20
5978;DHT22;3015;51.390;12.256;2022-12-29T07:11:05;10.40;99.90
5978;DHT22;3015;51.390;12.256;2022-12-29T07:13:31;10.40;99.90
5978;DHT22;3015;51.390;12.256;2022-12-29T07:15:56;10.40;99.90
5978;DHT22;3015;51.390;12.256;2022-12-29T07:18:22;10.30;99.90
5978;DHT22;3015;51.390;12.256;2022-12-29T07:20:48;10.40;99.90
5978;DHT22;3015;51.390;12.256;2022-12-29T07:23:13;10.40;99.90
5978;DHT22;3015;51.390;12.256;2022-12-29T07:25:39;10.50;99.90
5978;DHT22;3015;51.390;12.256;2022-12-29T07:28:06;10.50;99.90
5978;DHT22;3015;51.390;12.256;2022-12-29T07:30:32;10.60;99.90
5978;DHT22;3015;51.390;12.256;2022-12-29T07:32:58;10.70;99.90
5978;DHT22;3015;51.390;12.256;2022-12-29T07:35:24;10.60;99.90
5978;DHT22;3015;51.390;12.256;2022-12-29T07:37:49;10.60;99.90
5978;DHT22;3015;51.390;12.256;2022-12-29T07:40:15;10.60;99.90
5978;DHT22;3015;51.390;12.256;2022-12-29T07:42:41;10.60;99.90
5978;DHT22;3015;51.390;12.256;2022-12-29T07:45:07;10.70;99.90
5978;DHT22;3015;51.390;12.256;2022-12-29T07:47:34;10.70;99.90
5978;DHT22;3015;51.390;12.256;2022-12-29T07:50:00;10.80;99.90
5978;DHT22;3015;51.390;12.256;2022-12-29T07:52:25;10.80;99.90
5978;DHT22;3015;51.390;12.256;2022-12-29T07:54:51;10.90;99.90
5978;DHT22;3015;51.390;12.256;2022-12-29T07:57:16;10.80;99.90
5978;DHT22;3015;51.390;12.256;2022-12-29T07:59:42;10.80;99.90
5978;DHT22;3015;51.390;12.256;2022-12-29T08:02:10;10.90;99.90
5978;DHT22;3015;51.390;12.256;2022-12-29T08:04:36;10.90;99.90
5978;DHT22;3015;51.390;12.256;2022-12-29T08:07:02;10.90;99.90
5978;DHT22;3015;51.390;12.256;2022-12-29T08:09:28;10.90;99.90
5978;DHT22;3015;51.390;12.256;2022-12-29T08:11:53;11.00;99.90
5978;DHT22;3015;51.390;12.256;2022-12-29T08:14:19;11.00;99.90
5978;DHT22;3015;51.390;12.256;2022-12-29T08:16:45;11.00;99.90
5978;DHT22;3015;51.390;12.256;2022-12-29T08:19:11;11.10;91.50
5978;DHT22;3015;51.390;12.256;2022-12-29T08:21:37;11.00;96.10
5978;DHT22;3015;51.390;12.256;2022-12-29T08:24:03;11.10;67.70
5978;DHT22;3015;51.390;12.256;2022-12-29T08:26:28;11.20;40.20
5978;DHT22;3015;51.390;12.256;2022-12-29T08:28:54;11.20;28.50
5978;DHT22;3015;51.390;12.256;2022-12-29T08:31:21;11.20;24.30
5978;DHT22;3015;51.390;12.256;2022-12-29T08:33:47;11.20;14.60
5978;DHT22;3015;51.390;12.256;2022-12-29T08:36:13;11.30;1.00
5978;DHT22;3015;51.390;12.256;2022-12-29T08:38:38;11.30;16.50
5978;DHT22;3015;51.390;12.256;2022-12-29T08:41:04;11.40;1.00
5978;DHT22;3015;51.390;12.256;2022-12-29T08:43:30;11.40;1.00
5978;DHT22;3015;51.390;12.256;2022-12-29T08:45:57;11.50;1.00
5978;DHT22;3015;51.390;12.256;2022-12-29T08:48:23;11.50;1.00
5978;DHT22;3015;51.390;12.256;2022-12-29T08:50:49;11.50;1.00
5978;DHT22;3015;51.390;12.256;2022-12-29T08:53:15;11.60;1.00
5978;DHT22;3015;51.390;12.256;2022-12-29T08:55:41;11.70;1.00
5978;DHT22;3015;51.390;12.256;2022-12-29T08:58:06;11.80;1.00
5978;DHT22;3015;51.390;12.256;2022-12-29T09:00:32;11.90;1.00
5978;DHT22;3015;51.390;12.256;2022-12-29T09:02:58;12.00;1.00
5978;DHT22;3015;51.390;12.256;2022-12-29T09:05:23;12.40;1.00
5978;DHT22;3015;51.390;12.256;2022-12-29T09:07:49;13.50;1.00
5978;DHT22;3015;51.390;12.256;2022-12-29T09:10:15;14.70;99.90
5978;DHT22;3015;51.390;12.256;2022-12-29T09:12:40;15.30;99.90
5978;DHT22;3015;51.390;12.256;2022-12-29T09:15:06;15.40;99.90
5978;DHT22;3015;51.390;12.256;2022-12-29T09:17:33;16.00;99.90
5978;DHT22;3015;51.390;12.256;2022-12-29T09:20:16;15.60;99.90
5978;DHT22;3015;51.390;12.256;2022-12-29T09:22:42;15.20;99.90
5978;DHT22;3015;51.390;12.256;2022-12-29T09:25:09;14.60;99.90
5978;DHT22;3015;51.390;12.256;2022-12-29T09:27:36;14.40;99.90
5978;DHT22;3015;51.390;12.256;2022-12-29T09:30:04;14.20;99.90
5978;DHT22;3015;51.390;12.256;2022-12-29T09:32:31;14.10;99.90
5978;DHT22;3015;51.390;12.256;2022-12-29T09:34:56;14.10;99.90
5978;DHT22;3015;51.390;12.256;2022-12-29T09:37:22;14.00;99.90
5978;DHT22;3015;51.390;12.256;2022-12-29T09:39:48;13.90;99.90
5978;DHT22;3015;51.390;12.256;2022-12-29T09:42:37;14.00;99.90
5978;DHT22;3015;51.390;12.256;2022-12-29T09:46:03;14.00;99.90
5978;DHT22;3015;51.390;12.256;2022-12-29T09:48:18;13.90;99.90
5978;DHT22;3015;51.390;12.256;2022-12-29T09:50:49;13.80;99.90
5978;DHT22;3015;51.390;12.256;2022-12-29T09:53:29;13.70;99.90
5978;DHT22;3015;51.390;12.256;2022-12-29T09:55:59;13.50;99.90
5978;DHT22;3015;51.390;12.256;2022-12-29T10:01:06;13.20;99.90
5978;DHT22;3015;51.390;12.256;2022-12-29T10:03:50;13.10;99.90
5978;DHT22;3015;51.390;12.256;2022-12-29T10:09:34;13.00;99.90
5978;DHT22;3015;51.390;12.256;2022-12-29T10:18:03;12.80;99.90
5978;DHT22;3015;51.390;12.256;2022-12-29T10:23:22;12.80;1.00
5978;DHT22;3015;51.390;12.256;2022-12-29T10:25:51;12.90;99.90
5978;DHT22;3015;51.390;12.256;2022-12-29T10:28:20;13.20;99.90
5978;DHT22;3015;51.390;12.256;2022-12-29T10:30:48;14.00;99.90
5978;DHT22;3015;51.390;12.256;2022-12-29T10:33:24;15.20;99.90
5978;DHT22;3015;51.390;12.256;2022-12-29T10:35:52;15.80;99.90
5978;DHT22;3015;51.390;12.256;2022-12-29T10:43:30;15.00;99.90
5978;DHT22;3015;51.390;12.256;2022-12-29T10:45:59;14.90;99.90
5978;DHT22;3015;51.390;12.256;2022-12-29T10:48:30;14.90;99.90
5978;DHT22;3015;51.390;12.256;2022-12-29T10:50:58;14.70;99.90
5978;DHT22;3015;51.390;12.256;2022-12-29T10:53:34;14.50;99.90
5978;DHT22;3015;51.390;12.256;2022-12-29T10:56:01;14.30;99.90
5978;DHT22;3015;51.390;12.256;2022-12-29T10:58:28;14.10;99.90
5978;DHT22;3015;51.390;12.256;2022-12-29T11:00:54;14.10;99.90
5978;DHT22;3015;51.390;12.256;2022-12-29T11:06:53;14.10;99.90
5978;DHT22;3015;51.390;12.256;2022-12-29T11:09:33;14.50;99.90
5978;DHT22;3015;51.390;12.256;2022-12-29T11:12:00;14.70;99.90
5978;DHT22;3015;51.390;12.256;2022-12-29T11:14:30;14.50;99.90
5978;DHT22;3015;51.390;12.256;2022-12-29T11:17:02;14.30;99.90
5978;DHT22;3015;51.390;12.256;2022-12-29T11:19:30;14.20;99.90
5978;DHT22;3015;51.390;12.256;2022-12-29T11:22:22;14.70;99.90
5978;DHT22;3015;51.390;12.256;2022-12-29T11:24:50;15.20;99.90
5978;DHT22;3015;51.390;12.256;2022-12-29T11:27:22;15.90;99.90
5978;DHT22;3015;51.390;12.256;2022-12-29T11:29:49;16.50;99.90
5978;DHT22;3015;51.390;12.256;2022-12-29T11:32:20;17.50;99.90
5978;DHT22;3015;51.390;12.256;2022-12-29T11:34:46;18.20;99.90
5978;DHT22;3015;51.390;12.256;2022-12-29T11:37:14;18.40;99.90
5978;DHT22;3015;51.390;12.256;2022-12-29T11:42:15;17.50;99.90
5978;DHT22;3015;51.390;12.256;2022-12-29T11:44:47;17.40;99.90
5978;DHT22;3015;51.390;12.256;2022-12-29T11:47:26;17.10;99.90
5978;DHT22;3015;51.390;12.256;2022-12-29T11:50:04;16.70;99.90
5978;DHT22;3015;51.390;12.256;2022-12-29T11:52:34;16.00;99.90
5978;DHT22;3015;51.390;12.256;2022-12-29T11:55:03;15.50;99.90
5978;DHT22;3015;51.390;12.256;2022-12-29T11:57:33;15.20;99.90
5978;DHT22;3015;51.390;12.256;2022-12-29T12:00:03;15.00;99.90
5978;DHT22;3015;51.390;12.256;2022-12-29T12:02:45;14.80;99.90
5978;DHT22;3015;51.390;12.256;2022-12-29T12:11:03;15.30;99.90
5978;DHT22;3015;51.390;12.256;2022-12-29T12:16:41;16.40;99.90
5978;DHT22;3015;51.390;12.256;2022-12-29T12:19:34;16.50;99.90
5978;DHT22;3015;51.390;12.256;2022-12-29T12:22:35;17.00;99.90
5978;DHT22;3015;51.390;12.256;2022-12-29T12:25:10;17.60;99.90
5978;DHT22;3015;51.390;12.256;2022-12-29T12:28:09;17.50;99.90
5978;DHT22;3015;51.390;12.256;2022-12-29T12:30:40;16.50;99.90
5978;DHT22;3015;51.390;12.256;2022-12-29T12:33:33;16.20;99.90
5978;DHT22;3015;51.390;12.256;2022-12-29T12:38:54;15.80;99.90
5978;DHT22;3015;51.390;12.256;2022-12-29T12:41:52;15.80;99.90
5978;DHT22;3015;51.390;12.256;2022-12-29T12:47:33;15.30;99.90
5978;DHT22;3015;51.390;12.256;2022-12-29T12:55:47;14.80;99.90
5978;DHT22;3015;51.390;12.256;2022-12-29T13:18:52;14.30;99.90
5978;DHT22;3015;51.390;12.256;2022-12-29T13:27:10;13.90;99.90
5978;DHT22;3015;51.390;12.256;2022-12-29T13:29:46;13.70;99.90
5978;DHT22;3015;51.390;12.256;2022-12-29T13:32:26;13.70;99.90
5978;DHT22;3015;51.390;12.256;2022-12-29T13:40:40;13.90;99.90
5978;DHT22;3015;51.390;12.256;2022-12-29T13:43:07;14.30;99.90
5978;DHT22;3015;51.390;12.256;2022-12-29T13:45:34;14.40;99.90
5978;DHT22;3015;51.390;12.256;2022-12-29T13:48:09;14.30;99.90
5978;DHT22;3015;51.390;12.256;2022-12-29T13:50:39;14.10;99.90
5978;DHT22;3015;51.390;12.256;2022-12-29T13:53:35;13.90;99.90
5978;DHT22;3015;51.390;12.256;2022-12-29T13:56:36;13.80;99.90
5978;DHT22;3015;51.390;12.256;2022-12-29T14:05:26;13.20;99.90
5978;DHT22;3015;51.390;12.256;2022-12-29T14:08:06;13.10;99.90
5978;DHT22;3015;51.390;12.256;2022-12-29T14:10:49;13.00;99.90
5978;DHT22;3015;51.390;12.256;2022-12-29T14:13:23;13.00;99.90
5978;DHT22;3015;51.390;12.256;2022-12-29T14:15:59;12.90;99.90
5978;DHT22;3015;51.390;12.256;2022-12-29T14:18:32;12.90;99.90
5978;DHT22;3015;51.390;12.256;2022-12-29T14:21:19;12.80;99.90
5978;DHT22;3015;51.390;12.256;2022-12-29T14:23:47;12.80;99.90
5978;DHT22;3015;51.390;12.256;2022-12-29T14:26:37;12.70;99.90
5978;DHT22;3015;51.390;12.256;2022-12-29T14:31:58;12.60;99.90
5978;DHT22;3015;51.390;12.256;2022-12-29T14:34:29;12.60;99.90
5978;DHT22;3015;51.390;12.256;2022-12-29T14:36:58;12.50;99.90
5978;DHT22;3015;51.390;12.256;2022-12-29T14:39:40;12.50;99.90
5978;DHT22;3015;51.390;12.256;2022-12-29T14:42:13;12.40;99.90
5978;DHT22;3015;51.390;12.256;2022-12-29T14:47:31;12.40;99.90
5978;DHT22;3015;51.390;12.256;2022-12-29T14:50:05;12.30;99.90
5978;DHT22;3015;51.390;12.256;2022-12-29T14:52:31;12.40;99.90
5978;DHT22;3015;51.390;12.256;2022-12-29T14:58:05;12.20;99.90
5978;DHT22;3015;51.390;12.256;2022-12-29T15:00:34;12.20;99.90
5978;DHT22;3015;51.390;12.256;2022-12-29T15:03:12;12.20;99.90
5978;DHT22;3015;51.390;12.256;2022-12-29T15:05:52;12.20;99.90
5978;DHT22;3015;51.390;12.256;2022-12-29T15:08:22;12.20;99.90
5978;DHT22;3015;51.390;12.256;2022-12-29T15:13:31;12.30;99.90
5978;DHT22;3015;51.390;12.256;2022-12-29T15:15:57;12.20;1.00
5978;DHT22;3015;51.390;12.256;2022-12-29T15:20:53;12.10;1.00
5978;DHT22;3015;51.390;12.256;2022-12-29T15:23:19;12.00;1.00
5978;DHT22;3015;51.390;12.256;2022-12-29T15:26:08;11.90;1.00
5978;DHT22;3015;51.390;12.256;2022-12-29T15:28:39;11.90;1.00
5978;DHT22;3015;51.390;12.256;2022-12-29T15:31:15;11.70;1.00
5978;DHT22;3015;51.390;12.256;2022-12-29T15:33:49;11.70;1.00
5978;DHT22;3015;51.390;12.256;2022-12-29T15:36:26;11.70;1.00
5978;DHT22;3015;51.390;12.256;2022-12-29T15:38:54;11.70;1.00
5978;DHT22;3015;51.390;12.256;2022-12-29T15:46:31;11.40;1.00
5978;DHT22;3015;51.390;12.256;2022-12-29T15:48:57;11.40;1.00
5978;DHT22;3015;51.390;12.256;2022-12-29T15:51:33;11.30;1.00
5978;DHT22;3015;51.390;12.256;2022-12-29T15:54:00;11.20;1.00
5978;DHT22;3015;51.390;12.256;2022-12-29T15:56:29;11.20;1.00
5978;DHT22;3015;51.390;12.256;2022-12-29T15:58:57;11.10;1.00
5978;DHT22;3015;51.390;12.256;2022-12-29T16:01:30;11.00;1.00
5978;DHT22;3015;51.390;12.256;2022-12-29T16:03:58;10.80;1.00
5978;DHT22;3015;51.390;12.256;2022-12-29T16:06:28;10.70;1.00
5978;DHT22;3015;51.390;12.256;2022-12-29T16:09:14;10.80;1.00
5978;DHT22;3015;51.390;12.256;2022-12-29T16:11:47;10.80;1.00
5978;DHT22;3015;51.390;12.256;2022-12-29T16:14:32;10.70;1.00
5978;DHT22;3015;51.390;12.256;2022-12-29T16:17:02;10.60;1.00
5978;DHT22;3015;51.390;12.256;2022-12-29T16:19:39;10.70;1.00
5978;DHT22;3015;51.390;12.256;2022-12-29T16:25:09;10.70;1.00
5978;DHT22;3015;51.390;12.256;2022-12-29T16:27:40;10.70;1.00
5978;DHT22;3015;51.390;12.256;2022-12-29T16:30:29;10.70;1.00
5978;DHT22;3015;51.390;12.256;2022-12-29T16:32:56;10.80;1.00
5978;DHT22;3015;51.390;12.256;2022-12-29T16:35:26;10.80;1.00
5978;DHT22;3015;51.390;12.256;2022-12-29T16:40:38;10.70;1.00
5978;DHT22;3015;51.390;12.256;2022-12-29T16:43:04;10.60;1.00
5978;DHT22;3015;51.390;12.256;2022-12-29T16:50:41;10.40;1.00
5978;DHT22;3015;51.390;12.256;2022-12-29T16:55:46;10.40;1.00
5978;DHT22;3015;51.390;12.256;2022-12-29T16:58:18;10.30;1.00
5978;DHT22;3015;51.390;12.256;2022-12-29T17:00:45;10.20;1.00
5978;DHT22;3015;51.390;12.256;2022-12-29T17:03:12;10.20;1.00
5978;DHT22;3015;51.390;12.256;2022-12-29T17:05:38;10.20;1.00
5978;DHT22;3015;51.390;12.256;2022-12-29T17:08:22;10.10;1.00
5978;DHT22;3015;51.390;12.256;2022-12-29T17:10:56;10.00;1.00
5978;DHT22;3015;51.390;12.256;2022-12-29T17:13:51;9.90;1.00
5978;DHT22;3015;51.390;12.256;2022-12-29T17:16:17;10.00;1.00
5978;DHT22;3015;51.390;12.256;2022-12-29T17:18:47;9.90;1.00
5978;DHT22;3015;51.390;12.256;2022-12-29T17:21:12;9.70;1.00
5978;DHT22;3015;51.390;12.256;2022-12-29T17:23:39;9.60;1.00
5978;DHT22;3015;51.390;12.256;2022-12-29T17:26:06;9.50;1.00
5978;DHT22;3015;51.390;12.256;2022-12-29T17:28:32;9.50;1.00
5978;DHT22;3015;51.390;12.256;2022-12-29T17:31:03;9.40;1.00
5978;DHT22;3015;51.390;12.256;2022-12-29T17:33:37;9.30;1.00
5978;DHT22;3015;51.390;12.256;2022-12-29T17:36:04;9.20;1.00
5978;DHT22;3015;51.390;12.256;2022-12-29T17:38:33;9.20;1.00
5978;DHT22;3015;51.390;12.256;2022-12-29T17:40:59;9.20;1.00
5978;DHT22;3015;51.390;12.256;2022-12-29T17:43:26;9.30;1.00
5978;DHT22;3015;51.390;12.256;2022-12-29T17:45:54;9.20;1.00
5978;DHT22;3015;51.390;12.256;2022-12-29T17:48:21;9.20;1.00
5978;DHT22;3015;51.390;12.256;2022-12-29T17:50:48;9.10;1.00
5978;DHT22;3015;51.390;12.256;2022-12-29T17:53:22;9.10;1.00
5978;DHT22;3015;51.390;12.256;2022-12-29T17:55:49;9.10;1.00
5978;DHT22;3015;51.390;12.256;2022-12-29T17:58:24;9.00;1.00
5978;DHT22;3015;51.390;12.256;2022-12-29T18:00:58;9.00;1.00
5978;DHT22;3015;51.390;12.256;2022-12-29T18:05:54;8.90;1.00
5978;DHT22;3015;51.390;12.256;2022-12-29T18:08:20;8.90;1.00
5978;DHT22;3015;51.390;12.256;2022-12-29T18:10:46;8.80;1.00
5978;DHT22;3015;51.390;12.256;2022-12-29T18:13:23;8.90;1.00
5978;DHT22;3015;51.390;12.256;2022-12-29T18:15:50;8.80;1.00
5978;DHT22;3015;51.390;12.256;2022-12-29T18:18:21;8.80;1.00
5978;DHT22;3015;51.390;12.256;2022-12-29T18:20:48;8.70;1.00
5978;DHT22;3015;51.390;12.256;2022-12-29T18:23:24;8.80;1.00
5978;DHT22;3015;51.390;12.256;2022-12-29T18:26:04;8.90;1.00
5978;DHT22;3015;51.390;12.256;2022-12-29T18:28:30;8.70;1.00
5978;DHT22;3015;51.390;12.256;2022-12-29T18:30:57;8.80;1.00
5978;DHT22;3015;51.390;12.256;2022-12-29T18:33:24;8.80;1.00
5978;DHT22;3015;51.390;12.256;2022-12-29T18:35:58;8.80;1.00
5978;DHT22;3015;51.390;12.256;2022-12-29T18:38:25;8.90;1.00
5978;DHT22;3015;51.390;12.256;2022-12-29T18:40:51;8.80;1.00
5978;DHT22;3015;51.390;12.256;2022-12-29T18:43:17;8.70;26.50
5978;DHT22;3015;51.390;12.256;2022-12-29T18:45:44;8.70;99.90
5978;DHT22;3015;51.390;12.256;2022-12-29T18:48:13;8.60;99.90
5978;DHT22;3015;51.390;12.256;2022-12-29T18:50:39;8.60;99.90